createdAt,value
2022-08-04T00:00:45.402Z,99.90
2022-08-04T00:03:15.574Z,99.90
2022-08-04T00:05:51.085Z,99.90
2022-08-04T00:08:23.177Z,99.90
2022-08-04T00:10:51.748Z,99.90
2022-08-04T00:13:23.710Z,99.90
2022-08-04T00:15:53.566Z,99.90
2022-08-04T00:18:23.518Z,99.90
2022-08-04T00:20:51.358Z,99.90
2022-08-04T00:23:19.160Z,99.90
2022-08-04T00:25:46.982Z,99.90
2022-08-04T00:28:15.511Z,99.90
2022-08-04T00:30:44.678Z,99.90
2022-08-04T00:33:12.486Z,99.90
2022-08-04T00:35:40.322Z,99.90
2022-08-04T00:38:08.284Z,99.90
2022-08-04T00:40:45.204Z,99.90
2022-08-04T00:43:16.308Z,99.90
2022-08-04T00:46:17.216Z,99.90
2022-08-04T00:49:04.252Z,99.90
2022-08-04T00:51:38.419Z,99.90
2022-08-04T00:54:11.403Z,99.90
2022-08-04T00:57:04.664Z,99.90
2022-08-04T00:59:44.964Z,99.90
2022-08-04T01:02:25.745Z,99.90
2022-08-04T01:05:03.430Z,99.90
2022-08-04T01:07:51.042Z,99.90
2022-08-04T01:10:24.243Z,99.90
2022-08-04T01:13:24.099Z,99.90
2022-08-04T01:16:00.583Z,99.90
2022-08-04T01:18:34.506Z,99.90
2022-08-04T01:21:12.926Z,99.90
2022-08-04T01:24:10.649Z,99.90
2022-08-04T01:26:57.404Z,99.90
2022-08-04T01:29:34.361Z,99.90
2022-08-04T01:32:14.642Z,99.90
2022-08-04T01:34:44.092Z,99.90
2022-08-04T01:37:15.086Z,99.90
2022-08-04T01:39:46.241Z,99.90
2022-08-04T01:42:31.367Z,99.90
2022-08-04T01:45:01.834Z,99.90
2022-08-04T01:47:30.525Z,99.90
2022-08-04T01:50:05.460Z,99.90
2022-08-04T01:52:33.496Z,99.90
2022-08-04T01:55:01.370Z,99.90
2022-08-04T01:57:36.767Z,99.90
2022-08-04T02:00:09.718Z,99.90
2022-08-04T02:02:37.691Z,99.90
2022-08-04T02:05:05.825Z,99.90
2022-08-04T02:08:03.014Z,99.90
2022-08-04T02:10:31.980Z,99.90
2022-08-04T02:13:07.811Z,99.90
2022-08-04T02:15:43.789Z,99.90
2022-08-04T02:18:13.778Z,99.90
2022-08-04T02:20:45.278Z,99.90
2022-08-04T02:23:16.476Z,99.90
2022-08-04T02:25:47.109Z,99.90
2022-08-04T02:28:22.574Z,99.90
2022-08-04T02:31:01.359Z,99.90
2022-08-04T02:33:32.950Z,99.90
2022-08-04T02:36:02.566Z,99.90
2022-08-04T02:38:39.362Z,99.90
2022-08-04T02:41:07.234Z,99.90
2022-08-04T02:43:51.758Z,99.90
2022-08-04T02:46:22.346Z,99.90
2022-08-04T02:48:50.909Z,99.90
2022-08-04T02:51:21.481Z,99.90
2022-08-04T02:53:49.828Z,99.90
2022-08-04T02:56:17.678Z,99.90
2022-08-04T02:58:45.549Z,99.90
2022-08-04T03:01:13.470Z,99.90
2022-08-04T03:03:47.198Z,99.90
2022-08-04T03:06:30.290Z,99.90
2022-08-04T03:09:35.117Z,99.90
2022-08-04T03:12:14.164Z,99.90
2022-08-04T03:14:53.477Z,99.90
2022-08-04T03:17:53.234Z,99.90
2022-08-04T03:21:09.402Z,99.90
2022-08-04T03:24:01.730Z,99.90
2022-08-04T03:26:55.206Z,99.90
2022-08-04T03:30:02.080Z,99.90
2022-08-04T03:33:02.836Z,99.90
2022-08-04T03:36:25.171Z,99.90
2022-08-04T03:39:41.323Z,99.90
2022-08-04T03:42:37.904Z,99.90
2022-08-04T03:45:38.866Z,99.90
2022-08-04T03:48:27.477Z,99.90
2022-08-04T03:51:36.028Z,99.90
2022-08-04T03:54:18.551Z,99.90
2022-08-04T03:57:15.254Z,99.90
2022-08-04T04:00:03.725Z,99.90
2022-08-04T04:03:02.593Z,99.90
2022-08-04T04:06:06.098Z,99.90
2022-08-04T04:08:49.819Z,99.90
2022-08-04T04:11:24.558Z,99.90
2022-08-04T04:14:11.761Z,99.90
2022-08-04T04:16:47.278Z,99.90
2022-08-04T04:19:29.484Z,99.90
2022-08-04T04:22:21.676Z,99.90
2022-08-04T04:25:06.202Z,99.90
2022-08-04T04:27:42.693Z,99.90
2022-08-04T04:30:12.569Z,99.90
2022-08-04T04:33:03.090Z,99.90
2022-08-04T04:35:36.378Z,99.90
2022-08-04T04:38:34.138Z,99.90
2022-08-04T04:41:15.532Z,99.90
2022-08-04T04:44:25.220Z,99.90
2022-08-04T04:47:02.426Z,99.90
2022-08-04T04:49:34.389Z,99.90
2022-08-04T04:52:07.571Z,99.90
2022-08-04T04:54:53.006Z,99.90
2022-08-04T04:57:53.220Z,99.90
2022-08-04T05:00:13.309Z,99.90
2022-08-04T05:03:09.499Z,99.90
2022-08-04T05:06:11.258Z,99.90
2022-08-04T05:09:18.312Z,99.90
2022-08-04T05:14:30.815Z,99.90
2022-08-04T05:15:16.659Z,99.90
2022-08-04T05:17:47.039Z,99.90
2022-08-04T05:20:17.568Z,99.90
2022-08-04T05:22:49.959Z,99.90
2022-08-04T05:25:26.331Z,99.90
2022-08-04T05:27:57.643Z,99.90
2022-08-04T05:30:26.008Z,99.90
2022-08-04T05:32:59.092Z,99.90
2022-08-04T05:35:37.461Z,99.90
2022-08-04T05:38:23.450Z,99.90
2022-08-04T05:40:51.286Z,99.90
2022-08-04T05:43:19.147Z,99.90
2022-08-04T05:45:48.214Z,99.90
2022-08-04T05:48:16.758Z,99.90
2022-08-04T05:50:45.066Z,99.90
2022-08-04T05:53:12.904Z,99.90
2022-08-04T05:55:57.543Z,99.90
2022-08-04T05:58:27.757Z,99.90
2022-08-04T06:00:55.568Z,99.90
2022-08-04T06:03:23.497Z,99.90
2022-08-04T06:05:51.495Z,99.90
2022-08-04T06:08:19.422Z,99.90
2022-08-04T06:10:49.135Z,99.90
2022-08-04T06:13:49.120Z,99.90
2022-08-04T06:16:07.984Z,99.90
2022-08-04T06:20:01.810Z,99.90
2022-08-04T06:21:34.926Z,99.90
2022-08-04T06:24:04.701Z,99.90
2022-08-04T06:26:34.777Z,99.90
2022-08-04T06:29:02.708Z,99.90
2022-08-04T06:32:26.838Z,99.90
2022-08-04T06:34:31.412Z,99.90
2022-08-04T06:36:59.408Z,99.90
2022-08-04T06:39:27.446Z,99.90
2022-08-04T06:42:20.109Z,99.90
2022-08-04T06:44:44.439Z,99.90
2022-08-04T06:47:13.922Z,99.90
2022-08-04T06:51:23.190Z,99.90
2022-08-04T06:52:34.601Z,99.90
2022-08-04T06:55:02.433Z,99.90
2022-08-04T06:57:31.858Z,99.90
2022-08-04T07:00:01.399Z,99.90
2022-08-04T07:02:30.390Z,99.90
2022-08-04T07:04:58.258Z,99.90
2022-08-04T07:07:36.827Z,99.90
2022-08-04T07:10:05.925Z,99.90
2022-08-04T07:12:35.121Z,99.90
2022-08-04T07:15:02.935Z,99.90
2022-08-04T07:17:34.787Z,99.90
2022-08-04T07:20:03.212Z,99.90
2022-08-04T07:22:31.016Z,99.90
2022-08-04T07:24:59.404Z,99.90
2022-08-04T07:27:48.438Z,99.90
2022-08-04T07:30:21.828Z,99.90
2022-08-04T07:32:52.504Z,99.90
2022-08-04T07:36:03.751Z,99.90
2022-08-04T07:38:11.245Z,99.90
2022-08-04T07:40:39.186Z,99.90
2022-08-04T07:43:07.171Z,99.90
2022-08-04T07:45:36.400Z,99.90
2022-08-04T07:48:06.907Z,99.90
2022-08-04T07:50:35.019Z,99.90
2022-08-04T07:53:53.280Z,99.90
2022-08-04T07:55:50.875Z,99.90
2022-08-04T07:58:18.694Z,99.90
2022-08-04T08:00:47.886Z,99.90
2022-08-04T08:03:16.425Z,99.90
2022-08-04T08:06:16.617Z,99.90
2022-08-04T08:08:39.019Z,99.90
2022-08-04T08:11:07.088Z,99.90
2022-08-04T08:13:35.543Z,99.90
2022-08-04T08:16:05.119Z,99.90
2022-08-04T08:18:33.061Z,99.90
2022-08-04T08:21:00.888Z,99.90
2022-08-04T08:23:29.543Z,99.90
2022-08-04T08:25:57.366Z,99.90
2022-08-04T08:28:25.197Z,99.90
2022-08-04T08:30:53.048Z,99.90
2022-08-04T08:33:22.227Z,99.90
2022-08-04T08:35:53.910Z,99.90
2022-08-04T08:38:28.944Z,99.90
2022-08-04T08:40:59.916Z,99.90
2022-08-04T08:44:06.272Z,99.90
2022-08-04T08:46:53.021Z,99.10
2022-08-04T08:50:03.997Z,99.90
2022-08-04T08:53:00.892Z,99.90
2022-08-04T08:55:35.034Z,76.90
2022-08-04T08:58:27.786Z,66.80
2022-08-04T09:00:58.150Z,50.90
2022-08-04T09:03:40.096Z,48.10
2022-08-04T09:06:32.354Z,77.00
2022-08-04T09:09:20.380Z,71.70
2022-08-04T09:11:51.099Z,93.60
2022-08-04T09:14:22.609Z,94.20
2022-08-04T09:16:54.173Z,73.70
2022-08-04T09:19:38.982Z,68.10
2022-08-04T09:22:13.024Z,63.30
2022-08-04T09:24:46.298Z,75.90
2022-08-04T09:27:16.990Z,70.30
2022-08-04T09:29:48.952Z,69.40
2022-08-04T09:32:23.089Z,67.50
2022-08-04T09:35:03.656Z,66.60
2022-08-04T09:37:45.944Z,74.10
2022-08-04T09:40:31.399Z,61.70
2022-08-04T09:43:13.851Z,39.60
2022-08-04T09:45:46.905Z,55.60
2022-08-04T09:48:17.416Z,44.80
2022-08-04T09:50:49.770Z,50.90
2022-08-04T09:53:29.113Z,44.70
2022-08-04T09:56:04.984Z,49.20
2022-08-04T09:58:44.096Z,48.30
2022-08-04T10:01:14.663Z,31.80
2022-08-04T10:03:44.952Z,43.70
2022-08-04T10:06:22.395Z,52.70
2022-08-04T10:09:01.371Z,45.40
2022-08-04T10:11:55.479Z,25.10
2022-08-04T10:14:36.565Z,29.10
2022-08-04T10:17:21.547Z,52.70
2022-08-04T10:19:54.788Z,34.60
2022-08-04T10:22:28.900Z,18.70
2022-08-04T10:25:03.642Z,7.20
2022-08-04T10:27:34.428Z,3.10
2022-08-04T10:30:11.807Z,8.30
2022-08-04T10:32:45.293Z,21.10
2022-08-04T10:35:14.741Z,8.90
2022-08-04T10:37:59.018Z,17.40
2022-08-04T10:40:45.108Z,19.90
2022-08-04T10:43:22.015Z,29.30
2022-08-04T10:45:57.807Z,14.30
2022-08-04T10:48:34.091Z,6.30
2022-08-04T10:51:05.244Z,17.70
2022-08-04T10:53:33.067Z,22.00
2022-08-04T10:56:07.231Z,23.70
2022-08-04T10:58:48.549Z,16.40
2022-08-04T11:02:02.011Z,15.50
2022-08-04T11:04:11.370Z,17.40
2022-08-04T11:06:39.186Z,53.10
2022-08-04T11:09:07.046Z,15.30
2022-08-04T11:12:01.075Z,26.00
2022-08-04T11:14:32.652Z,31.80
2022-08-04T11:17:02.821Z,15.80
2022-08-04T11:19:45.113Z,18.90
2022-08-04T11:22:20.492Z,5.80
2022-08-04T11:24:53.435Z,8.20
2022-08-04T11:27:30.359Z,9.00
2022-08-04T11:30:01.835Z,21.10
2022-08-04T11:32:35.532Z,17.30
2022-08-04T11:35:04.063Z,9.90
2022-08-04T11:37:37.802Z,1.00
2022-08-04T11:40:10.746Z,1.00
2022-08-04T11:42:40.489Z,12.60
2022-08-04T11:45:09.029Z,19.70
2022-08-04T11:47:45.605Z,12.80
2022-08-04T11:50:22.206Z,14.40
2022-08-04T11:52:50.363Z,12.40
2022-08-04T11:55:19.367Z,9.10
2022-08-04T11:57:54.207Z,9.30
2022-08-04T12:00:22.516Z,6.70
2022-08-04T12:03:16.677Z,1.00
2022-08-04T12:05:50.582Z,1.00
2022-08-04T12:08:30.787Z,1.00
2022-08-04T12:11:05.791Z,1.00
2022-08-04T12:13:38.272Z,1.00
2022-08-04T12:16:11.811Z,1.00
2022-08-04T12:18:41.210Z,1.60
2022-08-04T12:21:12.675Z,1.80
2022-08-04T12:23:44.066Z,6.80
2022-08-04T12:26:15.968Z,1.00
2022-08-04T12:29:08.974Z,1.00
2022-08-04T12:31:37.901Z,8.50
2022-08-04T12:34:08.366Z,1.00
2022-08-04T12:36:44.743Z,2.00
2022-08-04T12:39:13.956Z,2.10
2022-08-04T12:41:44.996Z,1.00
2022-08-04T12:44:36.538Z,1.00
2022-08-04T12:47:27.775Z,1.00
2022-08-04T12:49:56.335Z,5.60
2022-08-04T12:53:01.040Z,1.00
2022-08-04T12:55:18.283Z,1.00
2022-08-04T12:57:46.109Z,1.00
2022-08-04T13:00:26.263Z,1.00
2022-08-04T13:03:02.229Z,1.00
2022-08-04T13:05:30.399Z,19.70
2022-08-04T13:07:58.363Z,3.40
2022-08-04T13:10:30.189Z,8.50
2022-08-04T13:13:00.823Z,5.90
2022-08-04T13:15:30.837Z,1.00
2022-08-04T13:18:00.728Z,1.00
2022-08-04T13:20:32.134Z,3.70
2022-08-04T13:23:01.616Z,15.60
2022-08-04T13:26:42.685Z,8.90
2022-08-04T13:28:22.017Z,1.00
2022-08-04T13:30:55.704Z,3.40
2022-08-04T13:33:24.512Z,3.50
2022-08-04T13:35:54.504Z,1.00
2022-08-04T13:38:24.058Z,3.60
2022-08-04T13:40:51.920Z,6.10
2022-08-04T13:44:16.266Z,8.80
2022-08-04T13:46:27.677Z,1.00
2022-08-04T13:49:23.697Z,6.00
2022-08-04T13:51:57.498Z,1.00
2022-08-04T13:54:27.132Z,1.00
2022-08-04T13:57:00.421Z,2.90
2022-08-04T13:59:28.953Z,1.00
2022-08-04T14:02:01.942Z,1.00
2022-08-04T14:04:31.414Z,5.30
2022-08-04T14:07:04.301Z,4.70
2022-08-04T14:09:35.188Z,6.90
2022-08-04T14:12:45.226Z,3.80
2022-08-04T14:14:57.041Z,4.40
2022-08-04T14:17:30.556Z,4.20
2022-08-04T14:19:59.996Z,2.30
2022-08-04T14:22:37.493Z,14.80
2022-08-04T14:25:09.289Z,10.10
2022-08-04T14:27:45.344Z,8.90
2022-08-04T14:30:24.341Z,7.70
2022-08-04T14:34:01.403Z,11.30
2022-08-04T14:35:57.549Z,4.20
2022-08-04T14:38:25.399Z,13.50
2022-08-04T14:40:53.206Z,19.00
2022-08-04T14:43:21.094Z,11.60
2022-08-04T14:45:54.187Z,12.20
2022-08-04T14:48:25.353Z,7.40
2022-08-04T14:50:53.204Z,9.10
2022-08-04T14:53:21.897Z,2.40
2022-08-04T14:55:50.691Z,16.30
2022-08-04T14:58:36.762Z,13.20
2022-08-04T15:01:09.801Z,19.80
2022-08-04T15:03:49.908Z,10.30
2022-08-04T15:06:22.918Z,13.90
2022-08-04T15:08:51.741Z,6.70
2022-08-04T15:11:23.150Z,11.90
2022-08-04T15:13:51.673Z,12.80
2022-08-04T15:16:19.492Z,16.70
2022-08-04T15:18:49.737Z,14.40
2022-08-04T15:21:17.829Z,17.10
2022-08-04T15:23:45.663Z,10.60
2022-08-04T15:26:14.717Z,10.60
2022-08-04T15:28:43.454Z,6.60
2022-08-04T15:32:06.456Z,2.10
2022-08-04T15:34:00.577Z,5.20
2022-08-04T15:36:32.870Z,10.80
2022-08-04T15:39:07.786Z,12.50
2022-08-04T15:41:38.823Z,10.80
2022-08-04T15:44:43.584Z,14.90
2022-08-04T15:47:13.499Z,6.70
2022-08-04T15:49:43.292Z,7.30
2022-08-04T15:52:12.811Z,16.80
2022-08-04T15:54:42.607Z,18.20
2022-08-04T15:57:20.064Z,15.40
2022-08-04T16:00:01.440Z,13.70
2022-08-04T16:02:50.332Z,7.80
2022-08-04T16:05:39.209Z,20.50
2022-08-04T16:08:17.124Z,13.10
2022-08-04T16:10:49.424Z,12.70
2022-08-04T16:13:19.707Z,19.50
2022-08-04T16:15:49.525Z,14.40
2022-08-04T16:18:26.172Z,11.00
2022-08-04T16:20:58.339Z,13.10
2022-08-04T16:24:02.240Z,13.50
2022-08-04T16:26:45.699Z,11.90
2022-08-04T16:29:27.417Z,12.30
2022-08-04T16:32:18.800Z,16.20
2022-08-04T16:34:59.722Z,16.40
2022-08-04T16:37:33.802Z,16.00
2022-08-04T16:40:44.193Z,19.30
2022-08-04T16:43:13.732Z,17.20
2022-08-04T16:45:52.666Z,16.10
2022-08-04T16:48:21.138Z,17.90
2022-08-04T16:50:54.193Z,17.90
2022-08-04T16:53:52.752Z,20.90
2022-08-04T16:56:14.280Z,19.60
2022-08-04T16:58:54.121Z,16.90
2022-08-04T17:01:33.034Z,17.90
2022-08-04T17:04:05.123Z,22.70
2022-08-04T17:06:35.064Z,25.50
2022-08-04T17:09:07.303Z,35.50
2022-08-04T17:11:35.107Z,24.30
2022-08-04T17:14:05.839Z,24.50
2022-08-04T17:16:35.049Z,31.50
2022-08-04T17:19:03.102Z,21.30
2022-08-04T17:21:32.311Z,29.70
2022-08-04T17:24:13.161Z,28.30
2022-08-04T17:26:53.459Z,25.60
2022-08-04T17:29:22.470Z,28.10
2022-08-04T17:31:53.309Z,29.50
2022-08-04T17:34:21.980Z,30.90
2022-08-04T17:37:03.048Z,34.30
2022-08-04T17:39:42.239Z,34.30
2022-08-04T17:42:11.507Z,29.10
2022-08-04T17:44:39.461Z,30.30
2022-08-04T17:47:16.486Z,26.20
2022-08-04T17:49:53.358Z,32.40
2022-08-04T17:52:33.875Z,32.40
2022-08-04T17:55:13.766Z,37.60
2022-08-04T17:57:52.369Z,43.10
2022-08-04T18:00:20.692Z,41.20
2022-08-04T18:02:53.861Z,45.00
2022-08-04T18:06:01.347Z,42.50
2022-08-04T18:08:39.100Z,47.30
2022-08-04T18:11:04.138Z,54.00
2022-08-04T18:13:42.764Z,57.70
2022-08-04T18:16:23.015Z,63.70
2022-08-04T18:19:08.969Z,70.50
2022-08-04T18:21:45.484Z,67.20
2022-08-04T18:24:34.076Z,74.20
2022-08-04T18:27:06.561Z,88.40
2022-08-04T18:32:32.974Z,96.70
2022-08-04T18:35:05.790Z,92.30
2022-08-04T18:38:05.367Z,99.90
2022-08-04T18:40:30.283Z,99.90
2022-08-04T18:43:03.520Z,99.90
2022-08-04T18:45:34.679Z,99.90
2022-08-04T18:48:04.329Z,98.50
2022-08-04T18:51:10.456Z,99.60
2022-08-04T18:53:34.962Z,99.90
2022-08-04T18:56:04.258Z,99.90
2022-08-04T18:58:34.304Z,99.90
2022-08-04T19:01:03.572Z,99.90
2022-08-04T19:03:44.247Z,99.90
2022-08-04T19:06:13.823Z,99.90
2022-08-04T19:08:45.239Z,99.90
2022-08-04T19:11:38.725Z,99.90
2022-08-04T19:14:01.960Z,99.90
2022-08-04T19:16:32.680Z,99.90
2022-08-04T19:19:01.022Z,99.90
2022-08-04T19:22:00.538Z,99.90
2022-08-04T19:24:31.345Z,99.90
2022-08-04T19:27:06.316Z,99.90
2022-08-04T19:29:37.206Z,99.90
2022-08-04T19:32:14.352Z,99.90
2022-08-04T19:34:45.843Z,99.90
2022-08-04T19:37:56.163Z,99.90
2022-08-04T19:40:04.809Z,99.90
2022-08-04T19:42:32.811Z,99.90
2022-08-04T19:45:00.687Z,99.90
2022-08-04T19:48:17.679Z,99.90
2022-08-04T19:50:19.532Z,99.90
2022-08-04T19:52:52.015Z,99.90
2022-08-04T19:55:22.468Z,99.90
2022-08-04T19:57:50.886Z,99.90
2022-08-04T20:00:33.079Z,99.90
2022-08-04T20:03:03.693Z,99.90
2022-08-04T20:05:53.626Z,99.90
2022-08-04T20:08:24.284Z,99.90
2022-08-04T20:10:54.708Z,99.90
2022-08-04T20:13:22.937Z,99.90
2022-08-04T20:18:55.669Z,99.90
2022-08-04T20:21:53.857Z,99.90
2022-08-04T20:24:39.287Z,99.90
2022-08-04T20:27:04.818Z,99.90
2022-08-04T20:29:40.025Z,99.90
2022-08-04T20:32:09.613Z,99.90
2022-08-04T20:34:40.223Z,99.90
2022-08-04T20:37:10.116Z,99.90
2022-08-04T20:39:38.565Z,99.90
2022-08-04T20:42:07.087Z,99.90
2022-08-04T20:44:46.134Z,99.90
2022-08-04T20:47:14.838Z,99.90
2022-08-04T20:49:44.511Z,99.90
2022-08-04T20:52:19.927Z,99.90
2022-08-04T20:54:49.288Z,99.90
2022-08-04T20:57:24.214Z,99.90
2022-08-04T21:00:13.112Z,99.90
2022-08-04T21:02:41.570Z,99.90
2022-08-04T21:05:13.784Z,99.90
2022-08-04T21:07:48.778Z,99.90
2022-08-04T21:10:17.121Z,99.90
2022-08-04T21:12:50.608Z,99.90
2022-08-04T21:15:24.838Z,99.90
2022-08-04T21:17:58.810Z,99.90
2022-08-04T21:20:35.311Z,99.90
2022-08-04T21:23:07.441Z,99.90
2022-08-04T21:25:39.139Z,99.90
2022-08-04T21:28:11.839Z,99.90
2022-08-04T21:30:53.182Z,99.90
2022-08-04T21:33:22.940Z,99.90
2022-08-04T21:35:54.269Z,99.90
2022-08-04T21:38:27.850Z,99.90
2022-08-04T21:40:56.760Z,99.90
2022-08-04T21:43:28.493Z,99.90
2022-08-04T21:45:56.963Z,99.90
2022-08-04T21:48:33.011Z,99.90
2022-08-04T21:51:55.838Z,99.90
2022-08-04T21:54:05.496Z,99.90
2022-08-04T21:56:33.663Z,99.90
2022-08-04T21:59:04.527Z,99.90
2022-08-04T22:01:50.467Z,99.90
2022-08-04T22:04:20.795Z,99.90
2022-08-04T22:06:52.017Z,99.90
2022-08-04T22:09:22.024Z,99.90
2022-08-04T22:11:51.545Z,99.90
2022-08-04T22:14:27.606Z,99.90
2022-08-04T22:16:58.565Z,99.90
2022-08-04T22:19:40.856Z,99.90
2022-08-04T22:22:25.456Z,99.90
2022-08-04T22:24:55.120Z,99.90
2022-08-04T22:27:43.685Z,99.90
2022-08-04T22:30:17.087Z,99.90
2022-08-04T22:32:47.190Z,99.90
2022-08-04T22:35:36.209Z,99.90
2022-08-04T22:38:27.942Z,99.90
2022-08-04T22:40:59.444Z,99.90
2022-08-04T22:43:32.034Z,99.90
2022-08-04T22:46:03.911Z,99.90
2022-08-04T22:48:32.479Z,99.90
2022-08-04T22:51:00.619Z,99.90
2022-08-04T22:53:30.041Z,99.90
2022-08-04T22:56:09.552Z,99.90
2022-08-04T22:58:40.214Z,99.90
2022-08-04T23:01:09.011Z,99.90
2022-08-04T23:03:38.375Z,99.90
2022-08-04T23:06:11.082Z,99.90
2022-08-04T23:08:43.162Z,99.90
2022-08-04T23:11:14.936Z,99.90
2022-08-04T23:13:43.014Z,99.90
2022-08-04T23:16:11.120Z,99.90
2022-08-04T23:18:40.236Z,99.90
2022-08-04T23:21:10.937Z,99.90
2022-08-04T23:23:45.451Z,99.90
2022-08-04T23:26:27.814Z,99.90
2022-08-04T23:28:56.918Z,99.90
2022-08-04T23:31:24.876Z,99.90
2022-08-04T23:34:08.630Z,99.90
2022-08-04T23:36:36.564Z,99.90
2022-08-04T23:39:06.332Z,99.90
2022-08-04T23:41:53.715Z,99.90
2022-08-04T23:44:24.999Z,99.90
2022-08-04T23:46:59.098Z,99.90
2022-08-04T23:49:44.906Z,99.90
2022-08-04T23:52:23.550Z,99.90
2022-08-04T23:54:59.890Z,99.90
2022-08-04T23:57:31.421Z,99.90
